sensor_id;sensor_type;location;lat;lon;timestamp;temperature;humidity
22968;DHT22;11650;48.106;-1.696;2023-03-12T00:00:42;11.20;99.90
22968;DHT22;11650;48.106;-1.696;2023-03-12T00:03:08;11.20;99.90
22968;DHT22;11650;48.106;-1.696;2023-03-12T00:05:41;11.10;99.90
22968;DHT22;11650;48.106;-1.696;2023-03-12T00:08:07;11.10;99.90
22968;DHT22;11650;48.106;-1.696;2023-03-12T00:10:34;11.10;99.90
22968;DHT22;11650;48.106;-1.696;2023-03-12T00:13:00;11.00;99.90
22968;DHT22;11650;48.106;-1.696;2023-03-12T00:15:26;10.90;99.90
22968;DHT22;11650;48.106;-1.696;2023-03-12T00:17:52;10.80;99.90
22968;DHT22;11650;48.106;-1.696;2023-03-12T00:20:17;10.70;99.90
22968;DHT22;11650;48.106;-1.696;2023-03-12T00:22:44;10.70;99.90
22968;DHT22;11650;48.106;-1.696;2023-03-12T00:25:12;10.70;99.90
22968;DHT22;11650;48.106;-1.696;2023-03-12T00:27:38;10.60;99.90
22968;DHT22;11650;48.106;-1.696;2023-03-12T00:30:04;10.60;99.90
22968;DHT22;11650;48.106;-1.696;2023-03-12T00:32:34;10.60;99.90
22968;DHT22;11650;48.106;-1.696;2023-03-12T00:34:59;10.50;99.90
22968;DHT22;11650;48.106;-1.696;2023-03-12T00:37:25;10.60;99.90
22968;DHT22;11650;48.106;-1.696;2023-03-12T00:39:51;10.60;99.90
22968;DHT22;11650;48.106;-1.696;2023-03-12T00:42:17;10.60;99.90
22968;DHT22;11650;48.106;-1.696;2023-03-12T00:44:43;10.60;99.90
22968;DHT22;11650;48.106;-1.696;2023-03-12T00:47:09;10.60;99.90
22968;DHT22;11650;48.106;-1.696;2023-03-12T00:49:36;10.70;99.90
22968;DHT22;11650;48.106;-1.696;2023-03-12T00:52:02;10.70;99.90
22968;DHT22;11650;48.106;-1.696;2023-03-12T00:54:27;10.70;99.90
22968;DHT22;11650;48.106;-1.696;2023-03-12T00:56:53;10.70;99.90
22968;DHT22;11650;48.106;-1.696;2023-03-12T00:59:19;10.60;99.90
22968;DHT22;11650;48.106;-1.696;2023-03-12T01:01:44;10.60;99.90
22968;DHT22;11650;48.106;-1.696;2023-03-12T01:04:10;10.60;99.90
22968;DHT22;11650;48.106;-1.696;2023-03-12T01:06:36;10.60;99.90
22968;DHT22;11650;48.106;-1.696;2023-03-12T01:09:03;10.60;99.90
22968;DHT22;11650;48.106;-1.696;2023-03-12T01:11:30;10.60;99.90
22968;DHT22;11650;48.106;-1.696;2023-03-12T01:14:00;10.50;99.90
22968;DHT22;11650;48.106;-1.696;2023-03-12T01:16:27;10.40;99.90
22968;DHT22;11650;48.106;-1.696;2023-03-12T01:18:55;10.40;99.90
22968;DHT22;11650;48.106;-1.696;2023-03-12T01:21:22;10.30;99.90
22968;DHT22;11650;48.106;-1.696;2023-03-12T01:23:47;10.20;99.90
22968;DHT22;11650;48.106;-1.696;2023-03-12T01:26:13;10.20;99.90
22968;DHT22;11650;48.106;-1.696;2023-03-12T01:28:39;10.10;99.90
22968;DHT22;11650;48.106;-1.696;2023-03-12T01:31:09;10.00;99.90
22968;DHT22;11650;48.106;-1.696;2023-03-12T01:33:35;10.00;99.90
22968;DHT22;11650;48.106;-1.696;2023-03-12T01:36:00;10.00;99.90
22968;DHT22;11650;48.106;-1.696;2023-03-12T01:38:26;10.00;99.90
22968;DHT22;11650;48.106;-1.696;2023-03-12T01:40:52;10.00;99.90
22968;DHT22;11650;48.106;-1.696;2023-03-12T01:43:31;9.90;99.90
22968;DHT22;11650;48.106;-1.696;2023-03-12T01:46:25;9.90;99.90
22968;DHT22;11650;48.106;-1.696;2023-03-12T01:49:11;9.90;99.90
22968;DHT22;11650;48.106;-1.696;2023-03-12T01:51:56;9.80;99.90
22968;DHT22;11650;48.106;-1.696;2023-03-12T01:56:53;9.70;99.90
22968;DHT22;11650;48.106;-1.696;2023-03-12T01:59:26;9.70;99.90
22968;DHT22;11650;48.106;-1.696;2023-03-12T02:01:53;9.60;99.90
22968;DHT22;11650;48.106;-1.696;2023-03-12T02:04:21;9.60;99.90
22968;DHT22;11650;48.106;-1.696;2023-03-12T02:06:56;9.60;99.90
22968;DHT22;11650;48.106;-1.696;2023-03-12T02:09:22;9.60;99.90
22968;DHT22;11650;48.106;-1.696;2023-03-12T02:11:48;9.50;99.90
22968;DHT22;11650;48.106;-1.696;2023-03-12T02:14:14;9.50;99.90
22968;DHT22;11650;48.106;-1.696;2023-03-12T02:16:40;9.50;99.90
22968;DHT22;11650;48.106;-1.696;2023-03-12T02:19:17;9.40;99.90
22968;DHT22;11650;48.106;-1.696;2023-03-12T02:21:43;9.40;99.90
22968;DHT22;11650;48.106;-1.696;2023-03-12T02:26:43;9.40;99.90
22968;DHT22;11650;48.106;-1.696;2023-03-12T02:29:11;9.40;99.90
22968;DHT22;11650;48.106;-1.696;2023-03-12T02:31:41;9.30;99.90
22968;DHT22;11650;48.106;-1.696;2023-03-12T02:34:08;9.30;99.90
22968;DHT22;11650;48.106;-1.696;2023-03-12T02:36:34;9.20;99.90
22968;DHT22;11650;48.106;-1.696;2023-03-12T02:39:00;9.30;99.90
22968;DHT22;11650;48.106;-1.696;2023-03-12T02:41:27;9.20;99.90
22968;DHT22;11650;48.106;-1.696;2023-03-12T02:43:58;9.20;99.90
22968;DHT22;11650;48.106;-1.696;2023-03-12T02:46:26;9.20;99.90
22968;DHT22;11650;48.106;-1.696;2023-03-12T02:48:52;9.30;99.90
22968;DHT22;11650;48.106;-1.696;2023-03-12T02:51:19;9.30;99.90
22968;DHT22;11650;48.106;-1.696;2023-03-12T02:53:45;9.30;99.90
22968;DHT22;11650;48.106;-1.696;2023-03-12T02:56:11;9.20;99.90
22968;DHT22;11650;48.106;-1.696;2023-03-12T02:58:36;9.20;99.90
22968;DHT22;11650;48.106;-1.696;2023-03-12T03:01:02;9.20;99.90
22968;DHT22;11650;48.106;-1.696;2023-03-12T03:03:28;9.20;99.90
22968;DHT22;11650;48.106;-1.696;2023-03-12T03:05:54;9.20;99.90
22968;DHT22;11650;48.106;-1.696;2023-03-12T03:08:19;9.20;99.90
22968;DHT22;11650;48.106;-1.696;2023-03-12T03:10:45;9.20;99.90
22968;DHT22;11650;48.106;-1.696;2023-03-12T03:13:11;9.20;99.90
22968;DHT22;11650;48.106;-1.696;2023-03-12T03:15:36;9.20;99.90
22968;DHT22;11650;48.106;-1.696;2023-03-12T03:18:03;9.10;99.90
22968;DHT22;11650;48.106;-1.696;2023-03-12T03:20:30;9.10;99.90
22968;DHT22;11650;48.106;-1.696;2023-03-12T03:22:56;9.20;99.90
22968;DHT22;11650;48.106;-1.696;2023-03-12T03:25:22;9.20;99.90
22968;DHT22;11650;48.106;-1.696;2023-03-12T03:27:48;9.10;99.90
22968;DHT22;11650;48.106;-1.696;2023-03-12T03:30:14;9.10;99.90
22968;DHT22;11650;48.106;-1.696;2023-03-12T03:32:41;9.10;99.90
22968;DHT22;11650;48.106;-1.696;2023-03-12T03:35:07;9.10;99.90
22968;DHT22;11650;48.106;-1.696;2023-03-12T03:37:33;9.00;99.90
22968;DHT22;11650;48.106;-1.696;2023-03-12T03:39:58;9.00;99.90
22968;DHT22;11650;48.106;-1.696;2023-03-12T03:42:24;9.00;99.90
22968;DHT22;11650;48.106;-1.696;2023-03-12T03:44:50;8.90;99.90
22968;DHT22;11650;48.106;-1.696;2023-03-12T03:47:16;8.90;99.90
22968;DHT22;11650;48.106;-1.696;2023-03-12T03:49:41;8.90;99.90
22968;DHT22;11650;48.106;-1.696;2023-03-12T03:52:07;8.80;99.90
22968;DHT22;11650;48.106;-1.696;2023-03-12T03:54:33;8.80;99.90
22968;DHT22;11650;48.106;-1.696;2023-03-12T03:56:58;8.80;99.90
22968;DHT22;11650;48.106;-1.696;2023-03-12T03:59:25;8.70;99.90
22968;DHT22;11650;48.106;-1.696;2023-03-12T04:01:51;8.70;99.90
22968;DHT22;11650;48.106;-1.696;2023-03-12T04:04:17;8.70;99.90
22968;DHT22;11650;48.106;-1.696;2023-03-12T04:06:42;8.60;99.90
22968;DHT22;11650;48.106;-1.696;2023-03-12T04:09:08;8.60;99.90
22968;DHT22;11650;48.106;-1.696;2023-03-12T04:11:34;8.70;99.90
22968;DHT22;11650;48.106;-1.696;2023-03-12T04:14:00;8.70;99.90
22968;DHT22;11650;48.106;-1.696;2023-03-12T04:16:25;8.70;99.90
22968;DHT22;11650;48.106;-1.696;2023-03-12T04:18:51;8.70;99.90
22968;DHT22;11650;48.106;-1.696;2023-03-12T04:21:17;8.70;99.90
22968;DHT22;11650;48.106;-1.696;2023-03-12T04:23:43;8.70;99.90
22968;DHT22;11650;48.106;-1.696;2023-03-12T04:26:09;8.60;99.90
22968;DHT22;11650;48.106;-1.696;2023-03-12T04:28:36;8.60;99.90
22968;DHT22;11650;48.106;-1.696;2023-03-12T04:31:04;8.60;99.90
22968;DHT22;11650;48.106;-1.696;2023-03-12T04:33:33;8.60;99.90
22968;DHT22;11650;48.106;-1.696;2023-03-12T04:35:58;8.60;99.90
22968;DHT22;11650;48.106;-1.696;2023-03-12T04:38:26;8.50;99.90
22968;DHT22;11650;48.106;-1.696;2023-03-12T04:40:59;8.50;99.90
22968;DHT22;11650;48.106;-1.696;2023-03-12T04:43:26;8.50;99.90
22968;DHT22;11650;48.106;-1.696;2023-03-12T04:45:52;8.50;99.90
22968;DHT22;11650;48.106;-1.696;2023-03-12T04:48:18;8.50;99.90
22968;DHT22;11650;48.106;-1.696;2023-03-12T04:50:43;8.40;99.90
22968;DHT22;11650;48.106;-1.696;2023-03-12T04:53:09;8.40;99.90
22968;DHT22;11650;48.106;-1.696;2023-03-12T04:55:35;8.40;99.90
22968;DHT22;11650;48.106;-1.696;2023-03-12T04:58:01;8.40;99.90
22968;DHT22;11650;48.106;-1.696;2023-03-12T05:00:27;8.40;99.90
22968;DHT22;11650;48.106;-1.696;2023-03-12T05:02:52;8.50;99.90
22968;DHT22;11650;48.106;-1.696;2023-03-12T05:05:19;8.50;99.90
22968;DHT22;11650;48.106;-1.696;2023-03-12T05:07:45;8.40;99.90
22968;DHT22;11650;48.106;-1.696;2023-03-12T05:10:11;8.40;99.90
22968;DHT22;11650;48.106;-1.696;2023-03-12T05:12:36;8.40;99.90
22968;DHT22;11650;48.106;-1.696;2023-03-12T05:15:02;8.40;99.90
22968;DHT22;11650;48.106;-1.696;2023-03-12T05:17:28;8.30;99.90
22968;DHT22;11650;48.106;-1.696;2023-03-12T05:19:54;8.30;99.90
22968;DHT22;11650;48.106;-1.696;2023-03-12T05:22:19;8.30;99.90
22968;DHT22;11650;48.106;-1.696;2023-03-12T05:24:45;8.30;99.90
22968;DHT22;11650;48.106;-1.696;2023-03-12T05:27:10;8.30;99.90
22968;DHT22;11650;48.106;-1.696;2023-03-12T05:29:36;8.30;99.90
22968;DHT22;11650;48.106;-1.696;2023-03-12T05:32:02;8.30;99.90
22968;DHT22;11650;48.106;-1.696;2023-03-12T05:34:29;8.20;99.90
22968;DHT22;11650;48.106;-1.696;2023-03-12T05:36:56;8.20;99.90
22968;DHT22;11650;48.106;-1.696;2023-03-12T05:39:22;8.20;99.90
22968;DHT22;11650;48.106;-1.696;2023-03-12T05:41:48;8.20;99.90
22968;DHT22;11650;48.106;-1.696;2023-03-12T05:44:13;8.20;99.90
22968;DHT22;11650;48.106;-1.696;2023-03-12T05:46:41;8.20;99.90
22968;DHT22;11650;48.106;-1.696;2023-03-12T05:49:07;8.10;99.90
22968;DHT22;11650;48.106;-1.696;2023-03-12T05:51:33;8.20;99.90
22968;DHT22;11650;48.106;-1.696;2023-03-12T05:53:59;8.30;99.90
22968;DHT22;11650;48.106;-1.696;2023-03-12T05:56:25;8.40;99.90
22968;DHT22;11650;48.106;-1.696;2023-03-12T05:58:51;8.40;99.90
22968;DHT22;11650;48.106;-1.696;2023-03-12T06:01:22;8.40;99.90
22968;DHT22;11650;48.106;-1.696;2023-03-12T06:03:49;8.40;99.90
22968;DHT22;11650;48.106;-1.696;2023-03-12T06:06:14;8.50;99.90
22968;DHT22;11650;48.106;-1.696;2023-03-12T06:08:41;8.50;99.90
22968;DHT22;11650;48.106;-1.696;2023-03-12T06:11:07;8.50;99.90
22968;DHT22;11650;48.106;-1.696;2023-03-12T06:13:32;8.50;99.90
22968;DHT22;11650;48.106;-1.696;2023-03-12T06:16:07;8.50;99.90
22968;DHT22;11650;48.106;-1.696;2023-03-12T06:18:34;8.60;99.90
22968;DHT22;11650;48.106;-1.696;2023-03-12T06:21:21;8.60;99.90
22968;DHT22;11650;48.106;-1.696;2023-03-12T06:23:47;8.60;99.90
22968;DHT22;11650;48.106;-1.696;2023-03-12T06:26:14;8.60;99.90
22968;DHT22;11650;48.106;-1.696;2023-03-12T06:28:40;8.60;99.90
22968;DHT22;11650;48.106;-1.696;2023-03-12T06:31:07;8.60;99.90
22968;DHT22;11650;48.106;-1.696;2023-03-12T06:33:33;8.60;99.90
22968;DHT22;11650;48.106;-1.696;2023-03-12T06:36:00;8.50;99.90
22968;DHT22;11650;48.106;-1.696;2023-03-12T06:38:26;8.50;99.90
22968;DHT22;11650;48.106;-1.696;2023-03-12T06:43:20;8.40;99.90
22968;DHT22;11650;48.106;-1.696;2023-03-12T06:45:46;8.40;99.90
22968;DHT22;11650;48.106;-1.696;2023-03-12T06:48:12;8.40;99.90
22968;DHT22;11650;48.106;-1.696;2023-03-12T06:50:37;8.40;99.90
22968;DHT22;11650;48.106;-1.696;2023-03-12T06:53:03;8.40;99.90
22968;DHT22;11650;48.106;-1.696;2023-03-12T06:55:29;8.40;99.90
22968;DHT22;11650;48.106;-1.696;2023-03-12T06:57:54;8.40;99.90
22968;DHT22;11650;48.106;-1.696;2023-03-12T07:00:20;8.40;99.90
22968;DHT22;11650;48.106;-1.696;2023-03-12T07:02:46;8.40;99.90
22968;DHT22;11650;48.106;-1.696;2023-03-12T07:05:11;8.40;99.90
22968;DHT22;11650;48.106;-1.696;2023-03-12T07:07:37;8.40;99.90
22968;DHT22;11650;48.106;-1.696;2023-03-12T07:10:04;8.50;99.90
22968;DHT22;11650;48.106;-1.696;2023-03-12T07:12:31;8.50;99.90
22968;DHT22;11650;48.106;-1.696;2023-03-12T07:14:57;8.50;99.90
22968;DHT22;11650;48.106;-1.696;2023-03-12T07:17:23;8.50;99.90
22968;DHT22;11650;48.106;-1.696;2023-03-12T07:19:50;8.60;99.90
22968;DHT22;11650;48.106;-1.696;2023-03-12T07:22:16;8.70;99.90
22968;DHT22;11650;48.106;-1.696;2023-03-12T07:24:42;8.70;99.90
22968;DHT22;11650;48.106;-1.696;2023-03-12T07:27:07;8.80;99.90
22968;DHT22;11650;48.106;-1.696;2023-03-12T07:29:33;8.80;99.90
22968;DHT22;11650;48.106;-1.696;2023-03-12T07:31:59;8.90;99.90
22968;DHT22;11650;48.106;-1.696;2023-03-12T07:34:25;9.00;99.90
22968;DHT22;11650;48.106;-1.696;2023-03-12T07:36:50;9.00;99.90
22968;DHT22;11650;48.106;-1.696;2023-03-12T07:39:16;9.20;99.90
22968;DHT22;11650;48.106;-1.696;2023-03-12T07:41:43;9.20;99.90
22968;DHT22;11650;48.106;-1.696;2023-03-12T07:44:09;9.40;99.90
22968;DHT22;11650;48.106;-1.696;2023-03-12T07:46:34;9.50;99.90
22968;DHT22;11650;48.106;-1.696;2023-03-12T07:49:00;9.50;99.90
22968;DHT22;11650;48.106;-1.696;2023-03-12T07:51:26;9.50;99.90
22968;DHT22;11650;48.106;-1.696;2023-03-12T07:53:52;9.60;99.90
22968;DHT22;11650;48.106;-1.696;2023-03-12T07:56:17;9.80;99.90
22968;DHT22;11650;48.106;-1.696;2023-03-12T07:58:43;9.80;99.90
22968;DHT22;11650;48.106;-1.696;2023-03-12T08:01:09;9.90;99.90
22968;DHT22;11650;48.106;-1.696;2023-03-12T08:03:34;10.00;99.90
22968;DHT22;11650;48.106;-1.696;2023-03-12T08:06:02;10.00;99.90
22968;DHT22;11650;48.106;-1.696;2023-03-12T08:08:29;10.10;99.90
22968;DHT22;11650;48.106;-1.696;2023-03-12T08:10:56;10.20;99.90
22968;DHT22;11650;48.106;-1.696;2023-03-12T08:13:22;10.20;99.90
22968;DHT22;11650;48.106;-1.696;2023-03-12T08:15:52;10.20;99.90
22968;DHT22;11650;48.106;-1.696;2023-03-12T08:18:18;10.40;99.90
22968;DHT22;11650;48.106;-1.696;2023-03-12T08:20:45;10.40;99.90
22968;DHT22;11650;48.106;-1.696;2023-03-12T08:23:11;10.60;99.90
22968;DHT22;11650;48.106;-1.696;2023-03-12T08:25:37;10.60;99.90
22968;DHT22;11650;48.106;-1.696;2023-03-12T08:28:03;10.70;99.90
22968;DHT22;11650;48.106;-1.696;2023-03-12T08:30:29;10.70;99.90
22968;DHT22;11650;48.106;-1.696;2023-03-12T08:32:56;10.80;99.90
22968;DHT22;11650;48.106;-1.696;2023-03-12T08:35:21;10.90;99.90
22968;DHT22;11650;48.106;-1.696;2023-03-12T08:37:47;10.90;99.90
22968;DHT22;11650;48.106;-1.696;2023-03-12T08:40:13;11.00;99.90
22968;DHT22;11650;48.106;-1.696;2023-03-12T08:42:43;11.00;99.90
22968;DHT22;11650;48.106;-1.696;2023-03-12T08:45:10;11.00;99.90
22968;DHT22;11650;48.106;-1.696;2023-03-12T08:47:37;11.10;99.90
22968;DHT22;11650;48.106;-1.696;2023-03-12T08:50:06;11.20;99.90
22968;DHT22;11650;48.106;-1.696;2023-03-12T08:52:32;11.30;99.90
22968;DHT22;11650;48.106;-1.696;2023-03-12T08:54:58;11.40;99.90
22968;DHT22;11650;48.106;-1.696;2023-03-12T08:57:23;11.50;99.90
22968;DHT22;11650;48.106;-1.696;2023-03-12T08:59:49;11.60;99.90
22968;DHT22;11650;48.106;-1.696;2023-03-12T09:02:14;11.80;99.90
22968;DHT22;11650;48.106;-1.696;2023-03-12T09:04:40;11.90;99.90
22968;DHT22;11650;48.106;-1.696;2023-03-12T09:07:06;12.00;99.90
22968;DHT22;11650;48.106;-1.696;2023-03-12T09:09:31;11.80;99.90
22968;DHT22;11650;48.106;-1.696;2023-03-12T09:11:57;11.90;99.90
22968;DHT22;11650;48.106;-1.696;2023-03-12T09:14:22;12.00;99.90
22968;DHT22;11650;48.106;-1.696;2023-03-12T09:16:48;12.10;99.90
22968;DHT22;11650;48.106;-1.696;2023-03-12T09:19:15;12.10;99.90
22968;DHT22;11650;48.106;-1.696;2023-03-12T09:21:40;12.10;99.90
22968;DHT22;11650;48.106;-1.696;2023-03-12T09:24:06;12.10;99.90
22968;DHT22;11650;48.106;-1.696;2023-03-12T09:26:32;12.20;99.90
22968;DHT22;11650;48.106;-1.696;2023-03-12T09:28:58;12.20;99.90
22968;DHT22;11650;48.106;-1.696;2023-03-12T09:31:24;12.30;99.90
22968;DHT22;11650;48.106;-1.696;2023-03-12T09:33:51;12.50;99.90
22968;DHT22;11650;48.106;-1.696;2023-03-12T09:36:17;12.60;99.90
22968;DHT22;11650;48.106;-1.696;2023-03-12T09:38:42;12.70;99.90
22968;DHT22;11650;48.106;-1.696;2023-03-12T09:41:21;12.80;99.90
22968;DHT22;11650;48.106;-1.696;2023-03-12T09:46:56;13.00;99.90
22968;DHT22;11650;48.106;-1.696;2023-03-12T09:51:58;13.00;99.90
22968;DHT22;11650;48.106;-1.696;2023-03-12T09:54:43;13.00;99.90
22968;DHT22;11650;48.106;-1.696;2023-03-12T09:57:19;13.00;99.90
22968;DHT22;11650;48.106;-1.696;2023-03-12T09:59:46;13.20;99.90
22968;DHT22;11650;48.106;-1.696;2023-03-12T10:05:10;13.30;99.90
22968;DHT22;11650;48.106;-1.696;2023-03-12T10:07:45;13.40;99.90
22968;DHT22;11650;48.106;-1.696;2023-03-12T10:10:25;13.30;99.90
22968;DHT22;11650;48.106;-1.696;2023-03-12T10:15:26;13.60;99.90
22968;DHT22;11650;48.106;-1.696;2023-03-12T10:26:54;13.60;99.90
22968;DHT22;11650;48.106;-1.696;2023-03-12T10:29:36;13.50;99.90
22968;DHT22;11650;48.106;-1.696;2023-03-12T10:32:13;13.60;99.90
22968;DHT22;11650;48.106;-1.696;2023-03-12T10:34:59;13.70;99.90
22968;DHT22;11650;48.106;-1.696;2023-03-12T10:40:20;13.70;99.90
22968;DHT22;11650;48.106;-1.696;2023-03-12T10:42:47;13.60;99.90
22968;DHT22;11650;48.106;-1.696;2023-03-12T10:47:53;13.70;99.90
22968;DHT22;11650;48.106;-1.696;2023-03-12T10:50:22;13.80;99.90
22968;DHT22;11650;48.106;-1.696;2023-03-12T10:52:51;14.10;99.90
22968;DHT22;11650;48.106;-1.696;2023-03-12T10:57:49;14.00;99.90
22968;DHT22;11650;48.106;-1.696;2023-03-12T11:00:24;14.20;99.90
22968;DHT22;11650;48.106;-1.696;2023-03-12T11:03:19;14.50;99.90
22968;DHT22;11650;48.106;-1.696;2023-03-12T11:05:48;14.50;99.90
22968;DHT22;11650;48.106;-1.696;2023-03-12T11:08:31;14.30;99.90
22968;DHT22;11650;48.106;-1.696;2023-03-12T11:11:00;14.40;99.90
22968;DHT22;11650;48.106;-1.696;2023-03-12T11:15:57;14.50;99.90
22968;DHT22;11650;48.106;-1.696;2023-03-12T11:18:35;14.40;99.90
22968;DHT22;11650;48.106;-1.696;2023-03-12T11:24:01;14.70;99.90
22968;DHT22;11650;48.106;-1.696;2023-03-12T11:29:28;14.50;99.90
22968;DHT22;11650;48.106;-1.696;2023-03-12T11:34:33;14.70;99.90
22968;DHT22;11650;48.106;-1.696;2023-03-12T11:42:44;14.60;99.90
22968;DHT22;11650;48.106;-1.696;2023-03-12T11:56:23;14.50;99.90
22968;DHT22;11650;48.106;-1.696;2023-03-12T11:59:07;14.60;99.90
22968;DHT22;11650;48.106;-1.696;2023-03-12T12:01:57;14.90;99.90
22968;DHT22;11650;48.106;-1.696;2023-03-12T12:04:46;14.90;99.90
22968;DHT22;11650;48.106;-1.696;2023-03-12T12:07:33;14.90;99.90
22968;DHT22;11650;48.106;-1.696;2023-03-12T12:15:52;15.10;99.90
22968;DHT22;11650;48.106;-1.696;2023-03-12T12:21:01;14.70;99.90
22968;DHT22;11650;48.106;-1.696;2023-03-12T12:31:50;15.10;99.90
22968;DHT22;11650;48.106;-1.696;2023-03-12T12:34:28;15.20;99.90
22968;DHT22;11650;48.106;-1.696;2023-03-12T12:37:21;15.40;99.90
22968;DHT22;11650;48.106;-1.696;2023-03-12T12:42:51;15.30;99.90
22968;DHT22;11650;48.106;-1.696;2023-03-12T12:45:19;15.10;99.90
22968;DHT22;11650;48.106;-1.696;2023-03-12T12:47:50;15.00;99.90
22968;DHT22;11650;48.106;-1.696;2023-03-12T12:50:23;14.90;99.90
22968;DHT22;11650;48.106;-1.696;2023-03-12T12:52:56;14.90;99.90
22968;DHT22;11650;48.106;-1.696;2023-03-12T12:55:31;14.80;99.90
22968;DHT22;11650;48.106;-1.696;2023-03-12T12:58:14;14.60;99.90
22968;DHT22;11650;48.106;-1.696;2023-03-12T13:00:47;14.50;99.90
22968;DHT22;11650;48.106;-1.696;2023-03-12T13:03:17;14.60;99.90
22968;DHT22;11650;48.106;-1.696;2023-03-12T13:10:56;14.90;99.90
22968;DHT22;11650;48.106;-1.696;2023-03-12T13:13:23;14.90;99.90
22968;DHT22;11650;48.106;-1.696;2023-03-12T13:15:49;15.00;99.90
22968;DHT22;11650;48.106;-1.696;2023-03-12T13:26:05;15.20;99.90
22968;DHT22;11650;48.106;-1.696;2023-03-12T13:28:33;15.00;99.90
22968;DHT22;11650;48.106;-1.696;2023-03-12T13:36:27;14.90;99.90
22968;DHT22;11650;48.106;-1.696;2023-03-12T13:38:57;14.90;99.90
22968;DHT22;11650;48.106;-1.696;2023-03-12T13:50:24;14.80;99.90
22968;DHT22;11650;48.106;-1.696;2023-03-12T13:52:40;14.70;99.90
22968;DHT22;11650;48.106;-1.696;2023-03-12T13:57:48;14.50;99.90
22968;DHT22;11650;48.106;-1.696;2023-03-12T14:03:07;14.50;99.90
22968;DHT22;11650;48.106;-1.696;2023-03-12T14:05:54;14.40;99.90
22968;DHT22;11650;48.106;-1.696;2023-03-12T14:11:46;14.30;99.90
22968;DHT22;11650;48.106;-1.696;2023-03-12T14:19:45;14.40;99.90
22968;DHT22;11650;48.106;-1.696;2023-03-12T14:22:12;14.50;99.90
22968;DHT22;11650;48.106;-1.696;2023-03-12T14:24:41;14.50;99.90
22968;DHT22;11650;48.106;-1.696;2023-03-12T14:27:16;14.50;99.90
22968;DHT22;11650;48.106;-1.696;2023-03-12T14:29:52;14.60;99.90
22968;DHT22;11650;48.106;-1.696;2023-03-12T14:32:22;14.60;99.90
22968;DHT22;11650;48.106;-1.696;2023-03-12T14:34:53;14.50;99.90
22968;DHT22;11650;48.106;-1.696;2023-03-12T14:37:27;14.40;99.90
22968;DHT22;11650;48.106;-1.696;2023-03-12T14:40:00;14.30;99.90
22968;DHT22;11650;48.106;-1.696;2023-03-12T14:42:34;14.20;99.90
22968;DHT22;11650;48.106;-1.696;2023-03-12T14:47:39;14.20;99.90
22968;DHT22;11650;48.106;-1.696;2023-03-12T14:50:06;14.20;99.90
22968;DHT22;11650;48.106;-1.696;2023-03-12T14:52:32;14.20;99.90
22968;DHT22;11650;48.106;-1.696;2023-03-12T14:55:01;14.20;99.90
22968;DHT22;11650;48.106;-1.696;2023-03-12T14:57:28;14.00;99.90
22968;DHT22;11650;48.106;-1.696;2023-03-12T14:59:58;13.90;99.90
22968;DHT22;11650;48.106;-1.696;2023-03-12T15:02:25;13.80;99.90
22968;DHT22;11650;48.106;-1.696;2023-03-12T15:04:54;13.80;99.90
22968;DHT22;11650;48.106;-1.696;2023-03-12T15:07:26;13.70;99.90
22968;DHT22;11650;48.106;-1.696;2023-03-12T15:09:53;13.60;99.90
22968;DHT22;11650;48.106;-1.696;2023-03-12T15:12:33;13.60;99.90
22968;DHT22;11650;48.106;-1.696;2023-03-12T15:15:06;13.50;99.90
22968;DHT22;11650;48.106;-1.696;2023-03-12T15:17:33;13.40;99.90
22968;DHT22;11650;48.106;-1.696;2023-03-12T15:20:04;13.40;99.90
22968;DHT22;11650;48.106;-1.696;2023-03-12T15:22:34;13.40;99.90
22968;DHT22;11650;48.106;-1.696;2023-03-12T15:25:24;13.40;99.90
22968;DHT22;11650;48.106;-1.696;2023-03-12T15:28:27;13.30;99.90
22968;DHT22;11650;48.106;-1.696;2023-03-12T15:31:08;13.30;99.90
22968;DHT22;11650;48.106;-1.696;2023-03-12T15:33:37;13.20;99.90
22968;DHT22;11650;48.106;-1.696;2023-03-12T15:41:39;13.10;99.90
22968;DHT22;11650;48.106;-1.696;2023-03-12T15:44:18;13.00;99.90
22968;DHT22;11650;48.106;-1.696;2023-03-12T15:47:19;13.00;99.90
22968;DHT22;11650;48.106;-1.696;2023-03-12T15:49:38;13.00;99.90
22968;DHT22;11650;48.106;-1.696;2023-03-12T15:57:28;13.00;99.90
22968;DHT22;11650;48.106;-1.696;2023-03-12T16:02:39;13.00;99.90
22968;DHT22;11650;48.106;-1.696;2023-03-12T16:05:10;13.00;99.90
22968;DHT22;11650;48.106;-1.696;2023-03-12T16:07:36;12.90;99.90
22968;DHT22;11650;48.106;-1.696;2023-03-12T16:10:02;12.90;99.90
22968;DHT22;11650;48.106;-1.696;2023-03-12T16:12:28;13.00;99.90
22968;DHT22;11650;48.106;-1.696;2023-03-12T16:14:54;13.00;99.90
22968;DHT22;11650;48.106;-1.696;2023-03-12T16:17:21;12.90;99.90
22968;DHT22;11650;48.106;-1.696;2023-03-12T16:19:47;12.90;99.90
22968;DHT22;11650;48.106;-1.696;2023-03-12T16:22:13;12.90;99.90
22968;DHT22;11650;48.106;-1.696;2023-03-12T16:24:39;12.90;99.90
22968;DHT22;11650;48.106;-1.696;2023-03-12T16:27:05;12.90;99.90
22968;DHT22;11650;48.106;-1.696;2023-03-12T16:29:34;12.90;99.90
22968;DHT22;11650;48.106;-1.696;2023-03-12T16:32:00;12.90;99.90
22968;DHT22;11650;48.106;-1.696;2023-03-12T16:34:26;12.80;99.90
22968;DHT22;11650;48.106;-1.696;2023-03-12T16:36:52;12.80;99.90
22968;DHT22;11650;48.106;-1.696;2023-03-12T16:39:18;12.80;99.90
22968;DHT22;11650;48.106;-1.696;2023-03-12T16:41:44;12.80;99.90
22968;DHT22;11650;48.106;-1.696;2023-03-12T16:44:14;12.80;99.90
22968;DHT22;11650;48.106;-1.696;2023-03-12T16:46:43;12.80;99.90
22968;DHT22;11650;48.106;-1.696;2023-03-12T16:49:13;12.70;99.90
22968;DHT22;11650;48.106;-1.696;2023-03-12T16:51:38;12.80;99.90
22968;DHT22;11650;48.106;-1.696;2023-03-12T16:54:04;12.70;99.90
22968;DHT22;11650;48.106;-1.696;2023-03-12T16:56:30;12.70;99.90
22968;DHT22;11650;48.106;-1.696;2023-03-12T16:58:56;12.70;99.90
22968;DHT22;11650;48.106;-1.696;2023-03-12T17:01:26;12.70;99.90
22968;DHT22;11650;48.106;-1.696;2023-03-12T17:03:53;12.70;99.90
22968;DHT22;11650;48.106;-1.696;2023-03-12T17:06:24;12.70;99.90
22968;DHT22;11650;48.106;-1.696;2023-03-12T17:08:52;12.70;99.90
22968;DHT22;11650;48.106;-1.696;2023-03-12T17:11:18;12.70;99.90
22968;DHT22;11650;48.106;-1.696;2023-03-12T17:13:47;12.70;99.90
22968;DHT22;11650;48.106;-1.696;2023-03-12T17:16:14;12.70;99.90
22968;DHT22;11650;48.106;-1.696;2023-03-12T17:18:40;12.70;99.90
22968;DHT22;11650;48.106;-1.696;2023-03-12T17:21:06;12.70;99.90
22968;DHT22;11650;48.106;-1.696;2023-03-12T17:23:34;12.70;99.90
22968;DHT22;11650;48.106;-1.696;2023-03-12T17:26:00;12.70;99.90
22968;DHT22;11650;48.106;-1.696;2023-03-12T17:28:26;12.70;99.90
22968;DHT22;11650;48.106;-1.696;2023-03-12T17:30:51;12.70;99.90
22968;DHT22;11650;48.106;-1.696;2023-03-12T17:33:17;12.80;99.90
22968;DHT22;11650;48.106;-1.696;2023-03-12T17:35:44;12.80;99.90
22968;DHT22;11650;48.106;-1.696;2023-03-12T17:38:10;12.70;99.90
22968;DHT22;11650;48.106;-1.696;2023-03-12T17:40:42;12.80;99.90
22968;DHT22;11650;48.106;-1.696;2023-03-12T17:43:08;12.80;99.90
22968;DHT22;11650;48.106;-1.696;2023-03-12T17:45:34;12.70;99.90
22968;DHT22;11650;48.106;-1.696;2023-03-12T17:48:01;12.80;99.90
22968;DHT22;11650;48.106;-1.696;2023-03-12T17:50:27;12.80;99.90